Time;durP1;ratioP1;P1;durP2;ratioP2;P2;SDS_P1;SDS_P2;PMS_P1;PMS_P2;Temp;Humidity;BMP_temperature;BMP_pressure;BME280_temperature;BME280_humidity;BME280_pressure;Samples;Min_cycle;Max_cycle;Signal;HPM_P1;HPM_P2
2022/05/08 00:02:07;;;;;;;22.27;11.70;;;11.30;99.90;;;;;;5038130;28;20179;-87
2022/05/08 00:04:33;;;;;;;26.37;11.90;;;11.20;99.90;;;;;;5038639;28;20176;-85
2022/05/08 00:06:59;;;;;;;22.90;12.40;;;11.20;99.90;;;;;;5037543;28;20692;-85
2022/05/08 00:09:25;;;;;;;28.40;11.63;;;11.10;99.90;;;;;;5037693;28;20212;-86
2022/05/08 00:11:52;;;;;;;24.13;12.37;;;11.00;99.90;;;;;;5037618;28;20173;-86
2022/05/08 00:14:18;;;;;;;23.30;11.30;;;11.00;99.90;;;;;;5037920;28;20183;-85
2022/05/08 00:16:44;;;;;;;28.00;12.37;;;11.10;99.90;;;;;;5042109;28;20193;-87
2022/05/08 00:19:10;;;;;;;25.30;12.73;;;11.10;99.90;;;;;;5037850;28;20542;-86
2022/05/08 00:21:36;;;;;;;24.93;12.40;;;11.00;99.90;;;;;;5037236;28;20178;-86
2022/05/08 00:24:02;;;;;;;23.07;11.33;;;11.00;99.90;;;;;;5038041;28;20649;-86
2022/05/08 00:26:27;;;;;;;28.20;12.23;;;11.10;99.90;;;;;;5037272;28;20203;-85
2022/05/08 00:28:53;;;;;;;28.10;12.23;;;11.10;99.90;;;;;;5037161;28;20195;-85
2022/05/08 00:31:19;;;;;;;25.37;12.20;;;10.90;99.90;;;;;;5037116;28;20239;-86
2022/05/08 00:33:44;;;;;;;28.63;12.33;;;10.80;99.90;;;;;;5038099;28;20629;-85
2022/05/08 00:36:10;;;;;;;23.67;12.23;;;10.80;99.90;;;;;;5036829;28;20624;-86
2022/05/08 00:38:36;;;;;;;21.43;11.57;;;10.80;99.90;;;;;;5036507;28;20186;-87
2022/05/08 00:41:02;;;;;;;25.73;11.20;;;10.80;99.90;;;;;;5036017;28;20274;-86
2022/05/08 00:43:31;;;;;;;22.70;12.07;;;10.80;99.90;;;;;;5036910;28;20227;-86
2022/05/08 00:45:57;;;;;;;29.07;11.53;;;10.70;99.90;;;;;;5036232;28;20277;-86
2022/05/08 00:48:22;;;;;;;23.93;10.93;;;10.60;99.90;;;;;;5036160;28;20238;-86
2022/05/08 00:50:53;;;;;;;23.87;11.17;;;10.60;99.90;;;;;;5035971;28;20231;-86
2022/05/08 00:53:19;;;;;;;24.80;11.43;;;10.70;99.90;;;;;;5036643;28;20166;-86
2022/05/08 00:55:46;;;;;;;23.33;12.00;;;10.80;99.90;;;;;;5036048;28;20180;-85
2022/05/08 00:58:12;;;;;;;25.07;12.30;;;10.60;99.90;;;;;;5036095;28;20194;-85
2022/05/08 01:00:38;;;;;;;31.73;12.07;;;10.70;99.90;;;;;;5035981;28;20272;-86
2022/05/08 01:03:04;;;;;;;27.20;12.23;;;10.70;99.90;;;;;;5035729;28;20231;-85
2022/05/08 01:05:30;;;;;;;24.73;10.80;;;10.60;99.90;;;;;;5035685;28;20181;-87
2022/05/08 01:07:56;;;;;;;28.13;12.27;;;10.60;99.90;;;;;;5035852;28;20211;-85
2022/05/08 01:10:22;;;;;;;26.57;11.17;;;10.50;99.90;;;;;;5035621;28;20301;-86
2022/05/08 01:12:48;;;;;;;27.37;12.07;;;10.40;99.90;;;;;;5035689;28;20263;-85
2022/05/08 01:15:18;;;;;;;29.53;12.20;;;10.30;99.90;;;;;;5035896;28;20611;-87
2022/05/08 01:17:45;;;;;;;27.57;12.73;;;10.30;99.90;;;;;;5035620;28;20224;-85
2022/05/08 01:20:11;;;;;;;29.17;11.57;;;10.20;99.90;;;;;;5035474;28;20179;-86
2022/05/08 01:22:37;;;;;;;28.00;12.90;;;10.40;99.90;;;;;;5035539;28;20185;-85
2022/05/08 01:25:04;;;;;;;25.07;12.70;;;10.40;99.90;;;;;;5036354;28;20181;-86
2022/05/08 01:27:29;;;;;;;22.73;12.60;;;10.40;99.90;;;;;;5035358;28;20277;-86
2022/05/08 01:29:56;;;;;;;28.90;12.60;;;10.20;99.90;;;;;;5035228;28;20251;-86
2022/05/08 01:32:21;;;;;;;28.10;11.73;;;10.30;99.90;;;;;;5035371;28;20175;-86
2022/05/08 01:34:47;;;;;;;23.07;10.47;;;10.30;99.90;;;;;;5035884;28;20187;-86
2022/05/08 01:37:13;;;;;;;28.67;9.57;;;10.30;99.90;;;;;;5034971;28;20260;-85
2022/05/08 01:39:38;;;;;;;24.33;8.73;;;10.30;99.90;;;;;;5034790;28;20660;-86
2022/05/08 01:42:06;;;;;;;33.67;9.50;;;10.30;99.90;;;;;;5035373;28;20187;-86
2022/05/08 01:44:32;;;;;;;29.00;8.20;;;10.20;99.90;;;;;;5035834;28;20592;-86
2022/05/08 01:49:43;;;;;;;26.43;9.03;;;10.20;99.90;;;;;;5053867;28;20228;-85
2022/05/08 01:52:10;;;;;;;23.30;8.93;;;10.10;99.90;;;;;;5019378;28;20715;-86
2022/05/08 01:54:36;;;;;;;23.10;8.87;;;10.00;99.90;;;;;;5053977;28;20178;-86
2022/05/08 01:57:01;;;;;;;36.20;10.20;;;10.10;99.90;;;;;;5035643;28;20202;-85
2022/05/08 01:59:27;;;;;;;23.23;9.43;;;10.10;99.90;;;;;;5035468;28;20268;-86
2022/05/08 02:01:53;;;;;;;27.47;9.33;;;10.00;99.90;;;;;;5034932;28;20198;-86
2022/05/08 02:04:19;;;;;;;21.80;9.47;;;10.00;99.90;;;;;;5035882;28;20269;-86
2022/05/08 02:06:45;;;;;;;23.73;9.17;;;10.00;99.90;;;;;;5034585;28;20682;-86
2022/05/08 02:09:11;;;;;;;27.93;9.67;;;10.00;99.90;;;;;;5034850;28;20178;-86
2022/05/08 02:11:37;;;;;;;27.83;9.77;;;10.00;99.90;;;;;;5034798;28;20174;-86
2022/05/08 02:14:04;;;;;;;32.13;9.87;;;10.00;99.90;;;;;;5035195;28;20527;-86
2022/05/08 02:16:30;;;;;;;29.33;9.83;;;10.00;99.90;;;;;;5034618;28;20224;-85
2022/05/08 02:18:55;;;;;;;31.83;9.33;;;10.00;99.90;;;;;;5034723;28;20664;-86
2022/05/08 02:21:21;;;;;;;35.03;9.93;;;9.80;99.90;;;;;;5035067;28;20635;-86
2022/05/08 02:23:47;;;;;;;38.50;10.93;;;9.90;99.90;;;;;;5035408;28;20631;-86
2022/05/08 02:26:13;;;;;;;34.00;9.93;;;10.00;99.90;;;;;;5034693;28;20673;-87
2022/05/08 02:28:39;;;;;;;34.70;10.60;;;9.80;99.90;;;;;;5034729;28;20177;-85
2022/05/08 02:31:05;;;;;;;27.63;9.27;;;9.80;99.90;;;;;;5034536;28;20209;-86
2022/05/08 02:33:32;;;;;;;32.47;9.43;;;9.80;99.90;;;;;;5035140;28;20537;-85
2022/05/08 02:35:58;;;;;;;37.83;9.17;;;9.90;99.90;;;;;;5035284;28;20188;-85
2022/05/08 02:38:25;;;;;;;34.47;9.63;;;9.70;99.90;;;;;;5034197;28;20195;-86
2022/05/08 02:40:51;;;;;;;28.37;8.80;;;9.80;99.90;;;;;;5034919;28;20208;-85
2022/05/08 02:43:21;;;;;;;21.03;7.93;;;9.70;99.90;;;;;;5035248;28;20181;-86
2022/05/08 02:45:47;;;;;;;30.20;7.97;;;9.60;99.90;;;;;;5034855;28;20179;-86
2022/05/08 02:48:13;;;;;;;24.17;7.23;;;9.70;99.90;;;;;;5034987;28;20609;-84
2022/05/08 02:50:39;;;;;;;25.10;8.53;;;9.60;99.90;;;;;;5034837;28;20303;-85
2022/05/08 02:53:05;;;;;;;25.73;7.47;;;9.70;99.90;;;;;;5034886;28;20288;-86
2022/05/08 02:58:33;;;;;;;26.53;7.50;;;9.70;99.90;;;;;;5052671;28;20244;-85
2022/05/08 03:01:00;;;;;;;32.53;8.23;;;9.70;99.90;;;;;;5034153;28;20195;-85
2022/05/08 03:03:26;;;;;;;27.73;7.33;;;9.70;99.90;;;;;;5034913;28;20245;-86
2022/05/08 03:05:52;;;;;;;32.93;7.97;;;9.70;99.90;;;;;;5034489;28;20213;-86
2022/05/08 03:08:19;;;;;;;29.17;7.30;;;9.80;99.90;;;;;;5034621;28;20201;-85
2022/05/08 03:13:35;;;;;;;30.97;6.70;;;9.70;99.90;;;;;;5052644;28;20674;-85
2022/05/08 03:16:01;;;;;;;24.93;7.17;;;9.70;99.90;;;;;;5034437;28;20689;-86
2022/05/08 03:18:27;;;;;;;30.87;7.17;;;9.60;99.90;;;;;;5052401;28;20175;-85
2022/05/08 03:20:53;;;;;;;29.13;5.73;;;9.60;99.90;;;;;;5034637;28;20182;-86
2022/05/08 03:23:19;;;;;;;26.97;6.60;;;9.50;99.90;;;;;;5034639;28;20231;-85
2022/05/08 03:25:44;;;;;;;27.30;6.87;;;9.50;99.90;;;;;;5034392;28;20185;-85
2022/05/08 03:28:12;;;;;;;22.43;5.93;;;9.50;99.90;;;;;;5037477;28;20201;-86
2022/05/08 03:30:39;;;;;;;25.90;5.77;;;9.50;99.90;;;;;;5038070;28;20821;-85
2022/05/08 03:33:06;;;;;;;22.43;6.00;;;9.50;99.90;;;;;;5038448;28;20174;-85
2022/05/08 03:35:33;;;;;;;30.57;6.17;;;9.40;99.90;;;;;;5038175;28;20312;-86
2022/05/08 03:37:58;;;;;;;24.93;6.30;;;9.20;99.90;;;;;;5037903;28;20232;-85
2022/05/08 03:40:26;;;;;;;28.00;6.20;;;9.30;99.90;;;;;;5037836;28;20211;-84
2022/05/08 03:42:53;;;;;;;22.07;5.57;;;9.30;99.90;;;;;;5037792;28;20557;-86
2022/05/08 03:45:19;;;;;;;29.93;7.10;;;9.40;99.90;;;;;;5038775;28;20184;-85
2022/05/08 03:47:44;;;;;;;28.47;5.93;;;9.40;99.90;;;;;;5037941;28;20208;-86
2022/05/08 03:50:10;;;;;;;23.87;5.53;;;9.40;99.90;;;;;;5037710;28;20259;-86
2022/05/08 03:52:36;;;;;;;25.27;5.87;;;9.40;99.90;;;;;;5055686;28;20580;-86
2022/05/08 03:55:03;;;;;;;29.77;6.83;;;9.40;99.90;;;;;;5038066;28;20175;-86
2022/05/08 03:57:29;;;;;;;24.07;6.20;;;9.40;99.90;;;;;;5038059;28;20247;-85
2022/05/08 03:59:55;;;;;;;30.03;5.17;;;9.40;99.90;;;;;;5056028;28;20249;-85
2022/05/08 04:02:20;;;;;;;25.40;5.53;;;9.40;99.90;;;;;;5037601;28;20205;-85
2022/05/08 04:04:46;;;;;;;22.63;6.63;;;9.40;99.90;;;;;;5038490;28;20181;-86
2022/05/08 04:07:13;;;;;;;30.33;6.57;;;9.30;99.90;;;;;;5037330;28;20289;-85
2022/05/08 04:09:39;;;;;;;28.33;5.93;;;9.40;99.90;;;;;;5037530;28;20199;-84
2022/05/08 04:12:05;;;;;;;30.60;5.57;;;9.30;99.90;;;;;;5037648;28;20176;-85
2022/05/08 04:14:30;;;;;;;24.00;5.80;;;9.30;99.90;;;;;;5050859;22;20647;-79
2022/05/08 04:16:56;;;;;;;26.30;5.67;;;9.30;99.90;;;;;;5055406;28;20173;-80
2022/05/08 04:19:21;;;;;;;22.93;5.83;;;9.30;99.90;;;;;;5055441;28;20208;-80
2022/05/08 04:21:47;;;;;;;27.33;5.30;;;9.30;99.90;;;;;;5037606;28;20170;-79
2022/05/08 04:24:19;;;;;;;20.60;5.37;;;9.30;99.90;;;;;;5055183;28;20249;-79
2022/05/08 04:26:48;;;;;;;33.20;5.70;;;9.30;99.90;;;;;;5056074;28;20510;-79
2022/05/08 04:29:13;;;;;;;35.13;6.33;;;9.30;99.90;;;;;;5059695;23;20268;-80
2022/05/08 04:31:39;;;;;;;24.87;5.20;;;9.30;99.90;;;;;;5053630;28;20181;-80
2022/05/08 04:34:05;;;;;;;30.60;6.00;;;9.30;99.90;;;;;;5054307;28;20557;-80
2022/05/08 04:36:31;;;;;;;25.97;5.37;;;9.20;99.90;;;;;;5034690;28;20165;-79
2022/05/08 04:38:56;;;;;;;22.23;6.13;;;9.30;99.90;;;;;;5052656;28;20274;-79
2022/05/08 04:41:22;;;;;;;25.77;5.83;;;9.30;99.90;;;;;;5035766;28;20170;-80
2022/05/08 04:43:47;;;;;;;30.40;6.73;;;9.30;99.90;;;;;;5054642;28;20630;-80
2022/05/08 04:46:13;;;;;;;26.80;5.53;;;9.30;99.90;;;;;;5054215;28;20657;-80
2022/05/08 04:48:41;;;;;;;28.13;5.53;;;9.30;99.90;;;;;;5053978;28;20653;-80
2022/05/08 04:51:07;;;;;;;21.30;5.53;;;9.30;99.90;;;;;;5053379;28;20272;-80
2022/05/08 04:53:33;;;;;;;29.27;4.57;;;9.20;99.90;;;;;;5053710;28;20666;-79
2022/05/08 04:55:59;;;;;;;32.90;5.60;;;9.30;99.90;;;;;;5053933;28;20695;-80
2022/05/08 04:58:29;;;;;;;36.23;6.13;;;9.30;99.90;;;;;;5053904;28;20161;-79
2022/05/08 05:00:58;;;;;;;30.47;5.57;;;9.30;99.90;;;;;;5050977;28;20166;-79
2022/05/08 05:03:24;;;;;;;27.17;4.90;;;9.40;99.90;;;;;;5053473;28;20259;-79
2022/05/08 05:05:50;;;;;;;27.97;5.83;;;9.30;99.90;;;;;;5053455;28;20644;-79
2022/05/08 05:08:15;;;;;;;28.93;4.70;;;9.40;99.90;;;;;;5053698;28;20174;-79
2022/05/08 05:10:41;;;;;;;28.63;6.17;;;9.30;99.90;;;;;;5053753;28;20216;-80
2022/05/08 05:13:06;;;;;;;37.33;5.70;;;9.40;99.90;;;;;;5053268;28;20265;-80
2022/05/08 05:15:32;;;;;;;25.57;5.00;;;9.30;99.90;;;;;;5035957;28;20177;-80
2022/05/08 05:18:01;;;;;;;23.63;4.93;;;9.40;99.90;;;;;;5036098;28;20196;-80
2022/05/08 05:20:26;;;;;;;24.47;4.70;;;9.50;99.90;;;;;;5035738;28;20220;-80
2022/05/08 05:22:52;;;;;;;26.17;5.83;;;9.40;99.90;;;;;;5035531;28;20182;-79
2022/05/08 05:25:18;;;;;;;20.60;4.70;;;9.40;99.90;;;;;;5053621;28;20173;-80
2022/05/08 05:27:43;;;;;;;16.80;4.83;;;9.40;99.90;;;;;;5053818;28;20545;-80
2022/05/08 05:30:09;;;;;;;20.63;4.67;;;9.30;99.90;;;;;;5035477;28;20211;-80
2022/05/08 05:32:35;;;;;;;24.40;4.83;;;9.40;99.90;;;;;;5052868;28;20169;-80
2022/05/08 05:35:00;;;;;;;19.97;4.87;;;9.50;99.90;;;;;;5035363;28;20180;-80
2022/05/08 05:37:26;;;;;;;24.97;5.20;;;9.30;99.90;;;;;;5051961;28;20178;-80
2022/05/08 05:39:52;;;;;;;19.53;4.87;;;9.40;99.90;;;;;;5035568;28;20204;-80
2022/05/08 05:42:17;;;;;;;26.87;5.20;;;9.40;99.90;;;;;;5034642;28;20239;-80
2022/05/08 05:44:43;;;;;;;21.67;5.30;;;9.60;99.90;;;;;;5035402;28;20177;-80
2022/05/08 05:49:52;;;;;;;22.40;4.90;;;9.70;99.90;;;;;;5052832;28;20758;-80
2022/05/08 05:52:18;;;;;;;25.80;4.50;;;9.70;99.90;;;;;;5052453;28;20177;-80
2022/05/08 05:54:43;;;;;;;19.47;4.73;;;9.60;99.90;;;;;;5052873;28;20630;-80
2022/05/08 05:57:09;;;;;;;26.47;4.43;;;9.70;99.90;;;;;;5052976;28;20571;-80
2022/05/08 05:59:34;;;;;;;18.20;4.57;;;9.70;99.90;;;;;;5034803;28;20197;-80
2022/05/08 06:02:00;;;;;;;28.17;4.53;;;9.70;99.90;;;;;;5050852;28;20185;-80
2022/05/08 06:04:25;;;;;;;20.40;4.33;;;9.60;99.90;;;;;;5052653;28;20184;-80
2022/05/08 06:06:51;;;;;;;19.30;4.47;;;9.70;99.90;;;;;;5034977;28;20186;-79
2022/05/08 06:09:16;;;;;;;26.73;4.67;;;9.80;99.90;;;;;;5034999;28;20302;-79
2022/05/08 06:11:44;;;;;;;17.93;3.93;;;9.90;99.90;;;;;;5034495;28;20177;-80
2022/05/08 06:14:09;;;;;;;15.43;4.43;;;10.10;99.90;;;;;;5052986;28;20651;-79
2022/05/08 06:16:35;;;;;;;19.00;3.80;;;10.20;99.90;;;;;;5052391;28;20173;-80
2022/05/08 06:19:01;;;;;;;20.70;3.83;;;10.30;99.90;;;;;;5052657;28;20199;-80
2022/05/08 06:21:27;;;;;;;22.60;4.10;;;10.70;99.90;;;;;;5034250;28;20270;-80
2022/05/08 06:23:55;;;;;;;16.33;3.70;;;10.70;99.90;;;;;;5052614;28;20176;-80
2022/05/08 06:26:21;;;;;;;20.53;4.70;;;10.80;99.90;;;;;;5052744;28;20197;-80
2022/05/08 06:28:48;;;;;;;14.40;3.67;;;10.90;99.90;;;;;;5052602;28;20217;-80
2022/05/08 06:31:16;;;;;;;15.60;3.50;;;10.60;99.90;;;;;;5034099;28;20202;-80
2022/05/08 06:33:45;;;;;;;22.93;4.30;;;11.10;99.90;;;;;;5034530;28;20174;-80
2022/05/08 06:36:11;;;;;;;13.87;3.40;;;11.60;99.90;;;;;;5034771;28;20549;-80
2022/05/08 06:38:37;;;;;;;18.03;3.90;;;11.60;99.90;;;;;;5049195;28;20192;-80
2022/05/08 06:41:03;;;;;;;16.17;3.97;;;11.80;99.90;;;;;;5034320;28;20751;-80
2022/05/08 06:43:28;;;;;;;12.47;3.80;;;11.60;99.90;;;;;;5052396;28;20680;-80
2022/05/08 06:45:54;;;;;;;12.00;3.27;;;12.10;99.90;;;;;;5052262;28;20657;-81
2022/05/08 06:48:19;;;;;;;18.00;4.00;;;12.20;99.90;;;;;;5034603;28;20227;-80
2022/05/08 06:50:45;;;;;;;17.30;3.67;;;12.10;99.90;;;;;;5052446;28;20607;-80
2022/05/08 06:53:10;;;;;;;18.13;3.53;;;12.50;99.90;;;;;;5033870;28;20558;-80
2022/05/08 06:55:36;;;;;;;14.67;4.07;;;12.10;99.90;;;;;;5052312;28;20177;-80
2022/05/08 06:58:02;;;;;;;14.67;3.70;;;12.70;99.90;;;;;;5034963;28;20313;-80
2022/05/08 07:03:12;;;;;;;12.07;3.10;;;13.20;99.90;;;;;;5055192;28;20183;-81
2022/05/08 07:05:45;;;;;;;14.23;3.27;;;13.60;99.90;;;;;;5056346;28;20574;-81
2022/05/08 07:08:10;;;;;;;14.03;3.30;;;13.60;99.90;;;;;;5056710;28;20191;-81
2022/05/08 07:10:36;;;;;;;13.27;3.50;;;13.40;99.90;;;;;;5056036;28;20669;-80
2022/05/08 07:13:02;;;;;;;14.27;3.20;;;13.40;99.90;;;;;;5055609;28;20170;-80
2022/05/08 07:15:27;;;;;;;13.57;3.67;;;13.80;99.90;;;;;;5038183;28;20169;-80
2022/05/08 07:17:53;;;;;;;19.23;3.33;;;13.60;99.90;;;;;;5037376;28;20592;-80
2022/05/08 07:20:18;;;;;;;19.03;3.50;;;14.00;99.90;;;;;;5038217;28;20223;-80
2022/05/08 07:22:44;;;;;;;20.43;3.17;;;14.70;99.90;;;;;;5055506;28;20450;-80
2022/05/08 07:25:12;;;;;;;7.53;2.83;;;14.80;99.90;;;;;;5055988;28;20549;-80
2022/05/08 07:27:39;;;;;;;11.07;3.23;;;15.20;99.90;;;;;;5038701;28;20268;-80
2022/05/08 07:30:06;;;;;;;12.63;3.23;;;14.90;99.90;;;;;;5056960;28;20565;-80
2022/05/08 07:32:33;;;;;;;16.20;3.57;;;15.30;99.80;;;;;;5038099;28;20173;-81
2022/05/08 07:37:43;;;;;;;16.17;3.57;;;14.80;99.60;;;;;;5056831;28;20270;-80
2022/05/08 07:40:13;;;;;;;12.50;3.57;;;14.20;99.90;;;;;;5055796;28;20295;-81
2022/05/08 07:42:39;;;;;;;12.23;3.20;;;15.20;98.40;;;;;;5056015;28;20633;-81
2022/05/08 07:45:05;;;;;;;13.70;3.87;;;15.30;98.70;;;;;;5038592;28;20207;-80
2022/05/08 07:47:31;;;;;;;17.33;4.23;;;15.50;98.90;;;;;;5038415;28;20367;-80
2022/05/08 07:49:57;;;;;;;13.73;3.63;;;15.60;98.30;;;;;;5038630;28;20969;-81
2022/05/08 07:52:23;;;;;;;17.17;4.40;;;15.10;98.60;;;;;;5055705;28;20533;-80
2022/05/08 07:54:49;;;;;;;13.27;3.63;;;14.70;98.90;;;;;;5037129;28;20185;-80
2022/05/08 07:57:15;;;;;;;15.37;3.57;;;15.50;96.50;;;;;;5056353;28;20165;-81
2022/05/08 07:59:41;;;;;;;13.03;3.17;;;15.80;97.20;;;;;;5055821;28;20268;-80
2022/05/08 08:02:07;;;;;;;15.30;4.07;;;15.80;97.50;;;;;;5035735;28;20573;-80
2022/05/08 08:04:34;;;;;;;17.63;3.80;;;16.40;95.50;;;;;;5055818;28;20181;-80
2022/05/08 08:07:00;;;;;;;14.20;3.67;;;16.10;94.30;;;;;;5054876;28;20193;-80
2022/05/08 08:09:26;;;;;;;11.57;3.40;;;16.40;95.60;;;;;;5055532;28;20200;-80
2022/05/08 08:11:53;;;;;;;11.57;3.47;;;16.50;93.70;;;;;;5054664;28;20170;-80
2022/05/08 08:14:19;;;;;;;12.40;3.37;;;16.30;94.10;;;;;;5054652;28;20177;-80
2022/05/08 08:16:46;;;;;;;8.07;2.83;;;16.20;93.30;;;;;;5055302;28;20178;-80
2022/05/08 08:19:11;;;;;;;14.60;3.53;;;15.80;94.30;;;;;;5054997;28;20280;-80
2022/05/08 08:21:37;;;;;;;13.80;3.50;;;15.70;94.10;;;;;;5054498;28;20212;-81
2022/05/08 08:24:03;;;;;;;11.80;3.10;;;16.40;93.20;;;;;;5055097;28;20217;-80
2022/05/08 08:26:28;;;;;;;12.13;3.47;;;16.20;93.00;;;;;;5054996;28;20180;-81
2022/05/08 08:28:54;;;;;;;15.27;3.67;;;16.50;93.10;;;;;;5054633;28;20300;-80
2022/05/08 08:31:20;;;;;;;16.77;3.67;;;15.80;94.00;;;;;;5036255;28;20247;-81
2022/05/08 08:33:46;;;;;;;10.93;3.10;;;15.90;94.90;;;;;;5055081;28;20537;-80
2022/05/08 08:36:11;;;;;;;11.63;3.67;;;15.90;94.50;;;;;;5036652;28;20211;-81
2022/05/08 08:38:38;;;;;;;12.13;3.10;;;17.10;93.90;;;;;;5035677;28;20201;-80
2022/05/08 08:41:05;;;;;;;12.97;2.90;;;17.00;93.30;;;;;;5036242;28;20212;-81
2022/05/08 08:49:24;;;;;;;10.93;3.15;;;16.70;94.00;;;;;;5055180;28;20231;-80
2022/05/08 08:51:50;;;;;;;12.83;2.93;;;17.20;93.10;;;;;;5037834;28;20177;-81
2022/05/08 08:54:20;;;;;;;13.35;3.10;;;17.00;92.40;;;;;;5071364;28;20170;-79
2022/05/08 08:56:46;;;;;;;9.10;2.60;;;16.60;92.10;;;;;;5070422;28;20224;-80
2022/05/08 08:59:12;;;;;;;8.27;2.87;;;16.20;91.90;;;;;;5049645;28;20223;-79
2022/05/08 09:01:44;;;;;;;13.30;3.37;;;16.50;92.20;;;;;;5055077;28;20562;-81
2022/05/08 09:04:11;;;;;;;14.83;2.90;;;17.10;92.60;;;;;;5055691;28;20173;-81
2022/05/08 09:06:42;;;;;;;9.70;3.08;;;17.50;91.50;;;;;;5037121;28;20173;-81
2022/05/08 09:09:24;;;;;;;8.97;3.10;;;17.60;90.30;;;;;;5054710;28;20189;-80
2022/05/08 09:11:53;;;;;;;12.25;2.80;;;16.80;89.20;;;;;;5054174;28;20256;-80
2022/05/08 09:14:34;;;;;;;10.20;2.97;;;16.70;90.50;;;;;;5054340;28;20158;-80
2022/05/08 09:17:04;;;;;;;13.43;2.97;;;16.60;90.70;;;;;;5036958;28;20259;-81
2022/05/08 09:19:32;;;;;;;10.82;3.53;;;16.70;90.40;;;;;;5036990;28;20203;-81
2022/05/08 09:22:00;;;;;;;10.93;3.00;;;16.80;90.30;;;;;;5036316;28;20169;-81
2022/05/08 09:24:25;;;;;;;9.10;2.93;;;18.10;91.40;;;;;;5035163;28;20169;-81
2022/05/08 09:27:15;;;;;;;13.13;3.63;;;17.40;90.80;;;;;;5036572;28;20268;-81
2022/05/08 09:29:42;;;;;;;10.85;3.78;;;17.10;89.70;;;;;;5054038;28;20707;-80
2022/05/08 09:32:08;;;;;;;16.33;3.30;;;16.60;90.20;;;;;;5036127;28;20209;-80
2022/05/08 09:34:58;;;;;;;11.65;3.20;;;16.50;91.30;;;;;;5035990;28;20640;-81
2022/05/08 09:37:25;;;;;;;10.20;3.03;;;17.70;90.00;;;;;;5034869;28;20272;-81
2022/05/08 09:39:51;;;;;;;11.60;3.03;;;18.80;86.90;;;;;;5036421;28;20756;-81
2022/05/08 09:42:38;;;;;;;7.35;3.10;;;17.90;88.10;;;;;;5052955;28;20181;-81
2022/05/08 09:45:08;;;;;;;8.15;3.20;;;17.90;87.10;;;;;;5053330;28;20173;-80
2022/05/08 09:47:49;;;;;;;12.57;3.47;;;17.00;88.80;;;;;;5035850;28;20174;-80
2022/05/08 09:50:17;;;;;;;7.60;2.83;;;17.00;89.60;;;;;;5053819;28;20275;-81
2022/05/08 09:52:44;;;;;;;12.40;3.13;;;17.40;90.30;;;;;;5035413;28;20165;-80
2022/05/08 09:55:16;;;;;;;16.95;3.38;;;18.40;90.30;;;;;;5053385;28;20614;-80
2022/05/08 09:57:41;;;;;;;8.35;2.92;;;17.90;86.00;;;;;;5035923;28;20173;-81
2022/05/08 10:00:09;;;;;;;11.52;3.03;;;18.90;84.60;;;;;;5053822;28;20332;-81
2022/05/08 10:02:35;;;;;;;10.20;2.72;;;19.20;87.10;;;;;;5053084;28;20178;-82
2022/05/08 10:05:02;;;;;;;9.98;2.90;;;19.10;85.80;;;;;;5053831;28;20195;-80
2022/05/08 10:07:28;;;;;;;11.73;2.83;;;18.80;85.20;;;;;;5053630;28;20166;-81
2022/05/08 10:15:29;;;;;;;9.93;2.90;;;18.90;84.00;;;;;;5051251;28;20176;-83
2022/05/08 10:18:24;;;;;;;9.77;2.83;;;17.50;83.70;;;;;;5054821;28;20174;-82
2022/05/08 10:21:04;;;;;;;15.13;3.28;;;17.70;86.40;;;;;;5054879;28;20173;-80
2022/05/08 10:23:38;;;;;;;9.65;2.67;;;18.70;85.00;;;;;;5054538;28;20168;-82
2022/05/08 10:26:17;;;;;;;10.68;2.58;;;18.80;86.60;;;;;;5054866;28;20177;-81
2022/05/08 10:29:12;;;;;;;9.80;2.83;;;19.70;82.10;;;;;;5064796;22;20197;-87
2022/05/08 10:31:51;;;;;;;11.80;3.22;;;19.50;85.40;;;;;;5015844;28;20300;-84
2022/05/08 10:34:31;;;;;;;11.57;3.22;;;19.90;81.30;;;;;;5017573;28;20510;-86
2022/05/08 10:37:12;;;;;;;9.07;2.78;;;19.20;83.50;;;;;;5015611;28;20189;-88
2022/05/08 10:39:45;;;;;;;5.90;2.85;;;18.70;83.80;;;;;;5016914;28;20177;-88
2022/05/08 10:42:29;;;;;;;8.82;2.72;;;18.40;83.70;;;;;;5016577;28;20214;-86
2022/05/08 10:44:56;;;;;;;14.32;3.40;;;18.90;81.20;;;;;;5016879;28;20166;-86
2022/05/08 10:47:37;;;;;;;10.63;3.38;;;19.00;82.60;;;;;;5020527;28;20547;-85
2022/05/08 10:50:11;;;;;;;16.98;2.97;;;19.90;77.20;;;;;;5016202;28;20213;-86
2022/05/08 10:52:44;;;;;;;9.50;2.67;;;20.40;81.50;;;;;;5016666;28;20669;-86
2022/05/08 10:55:15;;;;;;;13.65;3.33;;;19.90;75.70;;;;;;5016807;28;20534;-84
2022/05/08 10:57:43;;;;;;;10.68;2.83;;;19.00;80.10;;;;;;5016553;28;20190;-85
2022/05/08 11:00:11;;;;;;;8.93;3.00;;;20.00;77.80;;;;;;5015829;28;20181;-86
2022/05/08 11:02:44;;;;;;;8.73;2.63;;;19.60;75.90;;;;;;5015466;28;20174;-88
2022/05/08 11:05:12;;;;;;;9.02;3.03;;;19.70;77.20;;;;;;5016932;28;20174;-88
2022/05/08 11:07:39;;;;;;;10.55;3.00;;;19.70;77.60;;;;;;5016682;28;20209;-87
2022/05/08 11:10:16;;;;;;;9.88;2.78;;;18.20;77.80;;;;;;5014589;28;20198;-87
2022/05/08 11:12:59;;;;;;;13.77;2.88;;;19.30;82.20;;;;;;5012754;28;20173;-83
2022/05/08 11:15:30;;;;;;;9.10;3.17;;;19.70;78.40;;;;;;5014873;28;20170;-85
2022/05/08 11:18:15;;;;;;;12.07;3.33;;;19.10;79.60;;;;;;5033091;28;20265;-86
2022/05/08 11:20:53;;;;;;;9.85;2.67;;;20.30;79.00;;;;;;5015606;28;20219;-86
2022/05/08 11:23:23;;;;;;;6.60;2.72;;;20.20;76.90;;;;;;5017077;28;20534;-83
2022/05/08 11:25:51;;;;;;;10.02;2.55;;;19.30;76.10;;;;;;5016472;28;20170;-85
2022/05/08 11:28:19;;;;;;;10.80;3.20;;;19.60;76.20;;;;;;5015576;28;20198;-84
2022/05/08 11:30:46;;;;;;;8.30;2.80;;;20.10;74.10;;;;;;5014446;28;20209;-85
2022/05/08 11:36:05;;;;;;;9.50;3.03;;;21.60;72.00;;;;;;5033463;28;20753;-85
2022/05/08 11:38:48;;;;;;;9.98;2.97;;;21.30;70.70;;;;;;5015629;28;20166;-85
2022/05/08 11:41:32;;;;;;;9.07;2.65;;;21.10;72.10;;;;;;5017289;28;20172;-86
2022/05/08 11:44:15;;;;;;;10.25;2.85;;;21.50;71.70;;;;;;5016295;28;20198;-85
2022/05/08 11:46:45;;;;;;;8.77;2.78;;;20.80;71.00;;;;;;5034679;28;20194;-84
2022/05/08 11:49:27;;;;;;;8.82;2.95;;;20.50;72.20;;;;;;5020215;28;20182;-84
2022/05/08 11:51:57;;;;;;;4.55;2.30;;;19.40;73.50;;;;;;5019569;28;20189;-85
2022/05/08 11:54:24;;;;;;;6.95;2.78;;;20.40;73.40;;;;;;5021511;28;20216;-83
2022/05/08 11:56:52;;;;;;;7.18;2.50;;;19.40;76.00;;;;;;5018680;28;20200;-83
2022/05/08 11:59:22;;;;;;;9.00;2.80;;;19.50;76.40;;;;;;5020229;28;20257;-82
2022/05/08 12:01:53;;;;;;;12.68;2.80;;;19.60;76.90;;;;;;5019294;28;20174;-86
2022/05/08 12:04:29;;;;;;;10.60;2.80;;;19.70;77.30;;;;;;5019932;28;20634;-85
2022/05/08 12:07:08;;;;;;;12.55;2.95;;;19.10;77.50;;;;;;5020028;28;20252;-84
2022/05/08 12:09:46;;;;;;;10.63;2.92;;;18.70;77.60;;;;;;5019372;28;20178;-84
2022/05/08 12:12:33;;;;;;;14.18;2.67;;;19.40;77.80;;;;;;5051219;28;20221;-85
2022/05/08 12:15:03;;;;;;;6.50;2.67;;;19.50;75.50;;;;;;5052573;28;20173;-85
2022/05/08 12:17:42;;;;;;;12.77;2.78;;;19.90;77.10;;;;;;5020242;28;20599;-84
2022/05/08 12:20:15;;;;;;;7.78;2.58;;;19.60;76.60;;;;;;5052809;28;20272;-84
2022/05/08 12:22:42;;;;;;;7.53;2.38;;;18.30;75.60;;;;;;5018657;28;20190;-84
2022/05/08 12:25:08;;;;;;;7.97;3.00;;;19.30;77.10;;;;;;5019728;28;20196;-84
2022/05/08 12:27:37;;;;;;;11.35;3.40;;;19.60;78.50;;;;;;5064015;28;20189;-87
2022/05/08 12:30:09;;;;;;;8.38;3.08;;;19.70;76.20;;;;;;5040282;28;20206;-86
2022/05/08 12:32:36;;;;;;;9.30;2.92;;;19.10;75.70;;;;;;5022404;28;20685;-87
2022/05/08 12:35:03;;;;;;;8.50;3.28;;;19.10;78.70;;;;;;5022192;28;20170;-87
2022/05/08 12:37:29;;;;;;;16.38;3.30;;;18.30;77.40;;;;;;5021017;28;20225;-88
2022/05/08 12:39:54;;;;;;;8.50;2.92;;;17.90;78.80;;;;;;5022151;28;20615;-89
2022/05/08 12:42:20;;;;;;;11.07;2.80;;;18.30;77.50;;;;;;5022312;28;20210;-87
2022/05/08 12:44:46;;;;;;;8.80;2.72;;;18.80;79.90;;;;;;5020918;28;20174;-83
2022/05/08 12:47:13;;;;;;;8.65;2.90;;;18.50;78.00;;;;;;5019511;28;20213;-83
2022/05/08 12:49:40;;;;;;;5.20;2.38;;;18.60;77.40;;;;;;5021269;28;20170;-83
2022/05/08 12:52:07;;;;;;;6.78;2.50;;;18.90;75.50;;;;;;5020230;28;20216;-82
2022/05/08 12:54:33;;;;;;;9.00;2.65;;;19.10;76.00;;;;;;5021941;28;20170;-85
2022/05/08 12:57:01;;;;;;;10.63;2.97;;;19.30;76.50;;;;;;5028951;28;20201;-84
2022/05/08 12:59:44;;;;;;;7.50;2.77;;;18.90;75.00;;;;;;5026621;28;20194;-87
2022/05/08 13:02:11;;;;;;;8.77;2.67;;;18.90;77.40;;;;;;5025161;28;20174;-88
2022/05/08 13:04:38;;;;;;;10.02;2.63;;;18.40;77.10;;;;;;5057263;28;20170;-89
2022/05/08 13:07:03;;;;;;;7.37;2.43;;;18.80;76.10;;;;;;5022033;28;20194;-84
2022/05/08 13:09:29;;;;;;;13.00;2.67;;;18.10;73.70;;;;;;5020171;28;20185;-83
2022/05/08 13:11:55;;;;;;;7.70;2.50;;;18.50;74.10;;;;;;5017938;28;20269;-83
2022/05/08 13:14:21;;;;;;;6.53;2.93;;;17.80;75.40;;;;;;5018537;28;20197;-83
2022/05/08 13:16:47;;;;;;;7.73;2.60;;;17.40;75.20;;;;;;5017194;28;20198;-83